sensor_id;sensor_type;location;lat;lon;timestamp;temperature;humidity
1297;DHT22;641;48.492;9.184;2023-07-31T00:02:14;13.90;95.20
1297;DHT22;641;48.492;9.184;2023-07-31T00:04:40;14.20;96.90
1297;DHT22;641;48.492;9.184;2023-07-31T00:07:05;14.10;95.60
1297;DHT22;641;48.492;9.184;2023-07-31T00:09:32;13.90;95.30
1297;DHT22;641;48.492;9.184;2023-07-31T00:11:58;13.80;95.70
1297;DHT22;641;48.492;9.184;2023-07-31T00:14:23;13.70;96.10
1297;DHT22;641;48.492;9.184;2023-07-31T00:16:49;13.60;96.40
1297;DHT22;641;48.492;9.184;2023-07-31T00:19:15;13.60;96.50
1297;DHT22;641;48.492;9.184;2023-07-31T00:21:40;13.60;96.90
1297;DHT22;641;48.492;9.184;2023-07-31T00:24:06;13.60;97.50
1297;DHT22;641;48.492;9.184;2023-07-31T00:26:31;13.60;96.80
1297;DHT22;641;48.492;9.184;2023-07-31T00:28:57;13.70;96.40
1297;DHT22;641;48.492;9.184;2023-07-31T00:31:22;13.60;96.30
1297;DHT22;641;48.492;9.184;2023-07-31T00:33:48;13.60;96.30
1297;DHT22;641;48.492;9.184;2023-07-31T00:36:13;13.50;96.90
1297;DHT22;641;48.492;9.184;2023-07-31T00:38:39;13.60;97.40
1297;DHT22;641;48.492;9.184;2023-07-31T00:41:04;13.60;97.50
1297;DHT22;641;48.492;9.184;2023-07-31T00:43:30;13.50;97.30
1297;DHT22;641;48.492;9.184;2023-07-31T00:45:55;13.40;97.60
1297;DHT22;641;48.492;9.184;2023-07-31T00:48:23;13.30;97.70
1297;DHT22;641;48.492;9.184;2023-07-31T00:50:49;13.30;97.80
1297;DHT22;641;48.492;9.184;2023-07-31T00:53:15;13.40;98.20
1297;DHT22;641;48.492;9.184;2023-07-31T00:55:40;13.40;98.00
1297;DHT22;641;48.492;9.184;2023-07-31T00:58:06;13.30;98.00
1297;DHT22;641;48.492;9.184;2023-07-31T01:00:31;13.30;98.10
1297;DHT22;641;48.492;9.184;2023-07-31T01:02:57;13.30;98.30
1297;DHT22;641;48.492;9.184;2023-07-31T01:05:33;13.30;99.10
1297;DHT22;641;48.492;9.184;2023-07-31T01:10:50;13.30;99.00
1297;DHT22;641;48.492;9.184;2023-07-31T01:13:18;13.30;98.90
1297;DHT22;641;48.492;9.184;2023-07-31T01:15:44;13.20;99.70
1297;DHT22;641;48.492;9.184;2023-07-31T01:18:09;13.20;99.70
1297;DHT22;641;48.492;9.184;2023-07-31T01:20:35;13.20;99.80
1297;DHT22;641;48.492;9.184;2023-07-31T01:23:26;13.20;99.60
1297;DHT22;641;48.492;9.184;2023-07-31T01:26:11;13.30;99.90
1297;DHT22;641;48.492;9.184;2023-07-31T01:29:03;13.30;99.80
1297;DHT22;641;48.492;9.184;2023-07-31T01:31:32;13.30;99.90
1297;DHT22;641;48.492;9.184;2023-07-31T01:34:00;13.20;99.90
1297;DHT22;641;48.492;9.184;2023-07-31T01:36:27;13.10;99.90
1297;DHT22;641;48.492;9.184;2023-07-31T01:38:53;13.10;99.90
1297;DHT22;641;48.492;9.184;2023-07-31T01:41:22;13.20;99.90
1297;DHT22;641;48.492;9.184;2023-07-31T01:43:48;13.20;99.90
1297;DHT22;641;48.492;9.184;2023-07-31T01:46:13;13.20;99.90
1297;DHT22;641;48.492;9.184;2023-07-31T01:48:39;13.10;99.90
1297;DHT22;641;48.492;9.184;2023-07-31T01:51:04;13.10;99.90
1297;DHT22;641;48.492;9.184;2023-07-31T01:53:31;13.20;99.90
1297;DHT22;641;48.492;9.184;2023-07-31T01:55:56;13.20;99.90
1297;DHT22;641;48.492;9.184;2023-07-31T01:58:22;13.20;99.90
1297;DHT22;641;48.492;9.184;2023-07-31T02:00:47;13.00;99.90
1297;DHT22;641;48.492;9.184;2023-07-31T02:03:13;12.90;99.90
1297;DHT22;641;48.492;9.184;2023-07-31T02:05:48;13.00;99.90
1297;DHT22;641;48.492;9.184;2023-07-31T02:08:15;12.90;99.90
1297;DHT22;641;48.492;9.184;2023-07-31T02:10:40;12.90;99.90
1297;DHT22;641;48.492;9.184;2023-07-31T02:13:06;12.80;99.90
1297;DHT22;641;48.492;9.184;2023-07-31T02:15:32;12.80;99.90
1297;DHT22;641;48.492;9.184;2023-07-31T02:17:57;12.80;99.90
1297;DHT22;641;48.492;9.184;2023-07-31T02:20:23;12.90;99.90
1297;DHT22;641;48.492;9.184;2023-07-31T02:22:49;12.90;99.90
1297;DHT22;641;48.492;9.184;2023-07-31T02:25:14;12.90;99.90
1297;DHT22;641;48.492;9.184;2023-07-31T02:27:40;13.00;99.90
1297;DHT22;641;48.492;9.184;2023-07-31T02:30:06;13.00;99.90
1297;DHT22;641;48.492;9.184;2023-07-31T02:32:32;12.90;99.90
1297;DHT22;641;48.492;9.184;2023-07-31T02:34:57;13.00;99.90
1297;DHT22;641;48.492;9.184;2023-07-31T02:37:23;12.90;99.90
1297;DHT22;641;48.492;9.184;2023-07-31T02:39:49;12.80;99.90
1297;DHT22;641;48.492;9.184;2023-07-31T02:42:14;12.80;99.90
1297;DHT22;641;48.492;9.184;2023-07-31T02:44:40;12.80;99.90
1297;DHT22;641;48.492;9.184;2023-07-31T02:47:06;12.70;99.90
1297;DHT22;641;48.492;9.184;2023-07-31T02:49:31;12.70;99.90
1297;DHT22;641;48.492;9.184;2023-07-31T02:51:57;12.60;99.90
1297;DHT22;641;48.492;9.184;2023-07-31T02:54:22;12.60;99.90
1297;DHT22;641;48.492;9.184;2023-07-31T02:56:48;12.60;99.90
1297;DHT22;641;48.492;9.184;2023-07-31T02:59:14;12.70;99.90
1297;DHT22;641;48.492;9.184;2023-07-31T03:01:39;12.70;99.90
1297;DHT22;641;48.492;9.184;2023-07-31T03:04:05;12.70;99.90
1297;DHT22;641;48.492;9.184;2023-07-31T03:06:31;12.80;99.90
1297;DHT22;641;48.492;9.184;2023-07-31T03:08:56;12.70;99.90
1297;DHT22;641;48.492;9.184;2023-07-31T03:11:22;12.60;99.90
1297;DHT22;641;48.492;9.184;2023-07-31T03:13:47;12.20;99.90
1297;DHT22;641;48.492;9.184;2023-07-31T03:16:13;12.20;99.90
1297;DHT22;641;48.492;9.184;2023-07-31T03:18:38;12.30;99.90
1297;DHT22;641;48.492;9.184;2023-07-31T03:21:04;12.30;99.90
1297;DHT22;641;48.492;9.184;2023-07-31T03:23:30;12.30;99.90
1297;DHT22;641;48.492;9.184;2023-07-31T03:26:00;12.30;99.90
1297;DHT22;641;48.492;9.184;2023-07-31T03:28:26;12.30;99.90
1297;DHT22;641;48.492;9.184;2023-07-31T03:30:52;12.30;99.90
1297;DHT22;641;48.492;9.184;2023-07-31T03:33:18;12.40;99.90
1297;DHT22;641;48.492;9.184;2023-07-31T03:35:43;12.40;99.90
1297;DHT22;641;48.492;9.184;2023-07-31T03:38:09;12.50;99.90
1297;DHT22;641;48.492;9.184;2023-07-31T03:40:34;12.50;99.90
1297;DHT22;641;48.492;9.184;2023-07-31T03:43:00;12.60;99.90
1297;DHT22;641;48.492;9.184;2023-07-31T03:45:25;12.80;99.90
1297;DHT22;641;48.492;9.184;2023-07-31T03:47:51;12.80;99.90
1297;DHT22;641;48.492;9.184;2023-07-31T03:50:17;12.70;99.90
1297;DHT22;641;48.492;9.184;2023-07-31T03:52:42;12.60;99.90
1297;DHT22;641;48.492;9.184;2023-07-31T03:55:08;12.50;99.90
1297;DHT22;641;48.492;9.184;2023-07-31T03:57:34;12.50;99.90
1297;DHT22;641;48.492;9.184;2023-07-31T03:59:59;12.50;99.90
1297;DHT22;641;48.492;9.184;2023-07-31T04:02:25;12.50;99.90
1297;DHT22;641;48.492;9.184;2023-07-31T04:04:50;12.50;99.90
1297;DHT22;641;48.492;9.184;2023-07-31T04:07:16;12.50;99.90
1297;DHT22;641;48.492;9.184;2023-07-31T04:09:41;12.50;99.90
1297;DHT22;641;48.492;9.184;2023-07-31T04:12:07;12.60;99.90
1297;DHT22;641;48.492;9.184;2023-07-31T04:14:33;12.60;99.90
1297;DHT22;641;48.492;9.184;2023-07-31T04:16:58;12.70;99.90
1297;DHT22;641;48.492;9.184;2023-07-31T04:19:24;12.70;99.90
1297;DHT22;641;48.492;9.184;2023-07-31T04:21:50;12.80;99.90
1297;DHT22;641;48.492;9.184;2023-07-31T04:24:15;12.90;99.90
1297;DHT22;641;48.492;9.184;2023-07-31T04:26:41;12.90;99.90
1297;DHT22;641;48.492;9.184;2023-07-31T04:29:07;13.00;99.90
1297;DHT22;641;48.492;9.184;2023-07-31T04:31:33;13.10;99.90
1297;DHT22;641;48.492;9.184;2023-07-31T04:33:59;13.20;99.90
1297;DHT22;641;48.492;9.184;2023-07-31T04:36:25;13.20;99.90
1297;DHT22;641;48.492;9.184;2023-07-31T04:38:50;13.10;99.90
1297;DHT22;641;48.492;9.184;2023-07-31T04:41:16;13.10;99.90
1297;DHT22;641;48.492;9.184;2023-07-31T04:43:41;13.10;99.90
1297;DHT22;641;48.492;9.184;2023-07-31T04:46:07;13.10;99.90
1297;DHT22;641;48.492;9.184;2023-07-31T04:48:32;13.20;99.90
1297;DHT22;641;48.492;9.184;2023-07-31T04:50:58;13.20;99.90
1297;DHT22;641;48.492;9.184;2023-07-31T04:53:23;13.10;99.90
1297;DHT22;641;48.492;9.184;2023-07-31T04:55:49;13.10;99.90
1297;DHT22;641;48.492;9.184;2023-07-31T04:58:14;13.20;99.90
1297;DHT22;641;48.492;9.184;2023-07-31T05:00:40;13.30;99.90
1297;DHT22;641;48.492;9.184;2023-07-31T05:03:05;13.30;99.90
1297;DHT22;641;48.492;9.184;2023-07-31T05:05:32;13.40;99.90
1297;DHT22;641;48.492;9.184;2023-07-31T05:07:58;13.40;99.90
1297;DHT22;641;48.492;9.184;2023-07-31T05:10:23;13.30;99.90
1297;DHT22;641;48.492;9.184;2023-07-31T05:12:49;13.30;99.90
1297;DHT22;641;48.492;9.184;2023-07-31T05:15:14;13.30;99.90
1297;DHT22;641;48.492;9.184;2023-07-31T05:17:40;13.40;99.90
1297;DHT22;641;48.492;9.184;2023-07-31T05:20:06;13.50;99.90
1297;DHT22;641;48.492;9.184;2023-07-31T05:22:31;13.50;99.90
1297;DHT22;641;48.492;9.184;2023-07-31T05:24:57;13.60;99.90
1297;DHT22;641;48.492;9.184;2023-07-31T05:27:23;13.60;99.90
1297;DHT22;641;48.492;9.184;2023-07-31T05:29:48;13.70;99.90
1297;DHT22;641;48.492;9.184;2023-07-31T05:32:14;13.80;99.90
1297;DHT22;641;48.492;9.184;2023-07-31T05:34:39;13.90;99.90
1297;DHT22;641;48.492;9.184;2023-07-31T05:37:05;13.90;99.90
1297;DHT22;641;48.492;9.184;2023-07-31T05:39:31;14.10;99.90
1297;DHT22;641;48.492;9.184;2023-07-31T05:41:56;14.10;99.90
1297;DHT22;641;48.492;9.184;2023-07-31T05:44:22;14.20;99.70
1297;DHT22;641;48.492;9.184;2023-07-31T05:46:47;14.10;99.50
1297;DHT22;641;48.492;9.184;2023-07-31T05:49:13;14.10;99.60
1297;DHT22;641;48.492;9.184;2023-07-31T05:51:38;14.20;99.50
1297;DHT22;641;48.492;9.184;2023-07-31T05:54:04;14.30;99.90
1297;DHT22;641;48.492;9.184;2023-07-31T05:56:29;14.50;99.90
1297;DHT22;641;48.492;9.184;2023-07-31T05:58:55;14.60;99.90
1297;DHT22;641;48.492;9.184;2023-07-31T06:01:22;14.70;99.90
1297;DHT22;641;48.492;9.184;2023-07-31T06:03:47;14.90;99.50
1297;DHT22;641;48.492;9.184;2023-07-31T06:06:13;15.10;99.00
1297;DHT22;641;48.492;9.184;2023-07-31T06:08:39;15.20;99.10
1297;DHT22;641;48.492;9.184;2023-07-31T06:11:05;15.40;98.70
1297;DHT22;641;48.492;9.184;2023-07-31T06:13:31;15.50;98.90
1297;DHT22;641;48.492;9.184;2023-07-31T06:15:56;15.50;98.10
1297;DHT22;641;48.492;9.184;2023-07-31T06:18:22;15.60;97.10
1297;DHT22;641;48.492;9.184;2023-07-31T06:20:47;15.60;97.90
1297;DHT22;641;48.492;9.184;2023-07-31T06:23:19;15.60;97.90
1297;DHT22;641;48.492;9.184;2023-07-31T06:25:44;15.60;98.60
1297;DHT22;641;48.492;9.184;2023-07-31T06:28:10;15.70;99.20
1297;DHT22;641;48.492;9.184;2023-07-31T06:30:35;15.70;99.40
1297;DHT22;641;48.492;9.184;2023-07-31T06:33:01;15.70;99.20
1297;DHT22;641;48.492;9.184;2023-07-31T06:35:26;15.80;98.80
1297;DHT22;641;48.492;9.184;2023-07-31T06:37:52;16.00;99.10
1297;DHT22;641;48.492;9.184;2023-07-31T06:40:17;16.10;99.10
1297;DHT22;641;48.492;9.184;2023-07-31T06:42:44;16.30;98.60
1297;DHT22;641;48.492;9.184;2023-07-31T06:45:10;16.60;97.10
1297;DHT22;641;48.492;9.184;2023-07-31T06:47:36;16.70;95.20
1297;DHT22;641;48.492;9.184;2023-07-31T06:50:02;16.90;95.20
1297;DHT22;641;48.492;9.184;2023-07-31T06:52:27;17.00;93.00
1297;DHT22;641;48.492;9.184;2023-07-31T06:55:19;17.20;93.70
1297;DHT22;641;48.492;9.184;2023-07-31T06:57:45;17.30;92.70
1297;DHT22;641;48.492;9.184;2023-07-31T07:00:11;17.40;91.80
1297;DHT22;641;48.492;9.184;2023-07-31T07:02:37;17.50;91.50
1297;DHT22;641;48.492;9.184;2023-07-31T07:05:03;17.70;91.20
1297;DHT22;641;48.492;9.184;2023-07-31T07:07:28;17.80;90.30
1297;DHT22;641;48.492;9.184;2023-07-31T07:09:54;17.60;90.00
1297;DHT22;641;48.492;9.184;2023-07-31T07:12:19;17.60;90.50
1297;DHT22;641;48.492;9.184;2023-07-31T07:14:45;17.60;90.00
1297;DHT22;641;48.492;9.184;2023-07-31T07:17:13;17.70;89.60
1297;DHT22;641;48.492;9.184;2023-07-31T07:19:40;17.60;88.10
1297;DHT22;641;48.492;9.184;2023-07-31T07:22:07;17.60;89.00
1297;DHT22;641;48.492;9.184;2023-07-31T07:24:33;17.80;88.60
1297;DHT22;641;48.492;9.184;2023-07-31T07:26:58;18.20;90.10
1297;DHT22;641;48.492;9.184;2023-07-31T07:29:24;18.10;85.30
1297;DHT22;641;48.492;9.184;2023-07-31T07:31:49;18.10;89.20
1297;DHT22;641;48.492;9.184;2023-07-31T07:34:15;18.10;85.80
1297;DHT22;641;48.492;9.184;2023-07-31T07:36:40;18.30;88.30
1297;DHT22;641;48.492;9.184;2023-07-31T07:39:06;18.20;84.60
1297;DHT22;641;48.492;9.184;2023-07-31T07:41:31;18.30;85.50
1297;DHT22;641;48.492;9.184;2023-07-31T07:43:57;18.30;86.80
1297;DHT22;641;48.492;9.184;2023-07-31T07:46:22;18.50;84.60
1297;DHT22;641;48.492;9.184;2023-07-31T07:48:48;18.80;88.20
1297;DHT22;641;48.492;9.184;2023-07-31T07:51:14;19.00;86.40
1297;DHT22;641;48.492;9.184;2023-07-31T07:53:39;18.90;84.10
1297;DHT22;641;48.492;9.184;2023-07-31T07:56:05;18.90;85.30
1297;DHT22;641;48.492;9.184;2023-07-31T07:58:30;18.90;85.50
1297;DHT22;641;48.492;9.184;2023-07-31T08:00:56;18.80;78.80
1297;DHT22;641;48.492;9.184;2023-07-31T08:03:21;19.00;75.10
1297;DHT22;641;48.492;9.184;2023-07-31T08:05:47;19.20;75.60
1297;DHT22;641;48.492;9.184;2023-07-31T08:08:15;19.40;74.10
1297;DHT22;641;48.492;9.184;2023-07-31T08:10:41;19.70;72.10
1297;DHT22;641;48.492;9.184;2023-07-31T08:13:07;19.60;68.70
1297;DHT22;641;48.492;9.184;2023-07-31T08:15:33;19.60;70.20
1297;DHT22;641;48.492;9.184;2023-07-31T08:17:58;19.60;72.80
1297;DHT22;641;48.492;9.184;2023-07-31T08:20:24;19.50;70.90
1297;DHT22;641;48.492;9.184;2023-07-31T08:22:49;19.50;70.00
1297;DHT22;641;48.492;9.184;2023-07-31T08:25:15;19.40;69.90
1297;DHT22;641;48.492;9.184;2023-07-31T08:27:44;19.50;67.40
1297;DHT22;641;48.492;9.184;2023-07-31T08:30:11;19.50;68.20
1297;DHT22;641;48.492;9.184;2023-07-31T08:32:36;19.70;66.40
1297;DHT22;641;48.492;9.184;2023-07-31T08:35:02;19.90;67.60
1297;DHT22;641;48.492;9.184;2023-07-31T08:37:28;20.10;68.20
1297;DHT22;641;48.492;9.184;2023-07-31T08:39:54;20.20;65.60
1297;DHT22;641;48.492;9.184;2023-07-31T08:42:20;20.00;66.00
1297;DHT22;641;48.492;9.184;2023-07-31T08:44:46;20.40;68.10
1297;DHT22;641;48.492;9.184;2023-07-31T08:47:13;20.60;63.00
1297;DHT22;641;48.492;9.184;2023-07-31T08:49:39;20.40;62.60
1297;DHT22;641;48.492;9.184;2023-07-31T08:52:06;20.50;64.00
1297;DHT22;641;48.492;9.184;2023-07-31T08:54:32;20.50;62.30
1297;DHT22;641;48.492;9.184;2023-07-31T08:56:58;20.30;63.50
1297;DHT22;641;48.492;9.184;2023-07-31T08:59:27;20.30;64.10
1297;DHT22;641;48.492;9.184;2023-07-31T09:01:55;20.40;62.40
1297;DHT22;641;48.492;9.184;2023-07-31T09:04:23;20.60;62.60
1297;DHT22;641;48.492;9.184;2023-07-31T09:06:52;20.50;61.50
1297;DHT22;641;48.492;9.184;2023-07-31T09:09:19;20.50;63.30
1297;DHT22;641;48.492;9.184;2023-07-31T09:11:46;20.70;62.80
1297;DHT22;641;48.492;9.184;2023-07-31T09:14:13;20.90;62.40
1297;DHT22;641;48.492;9.184;2023-07-31T09:16:52;21.00;61.60
1297;DHT22;641;48.492;9.184;2023-07-31T09:19:34;20.60;61.60
1297;DHT22;641;48.492;9.184;2023-07-31T09:22:03;20.70;64.00
1297;DHT22;641;48.492;9.184;2023-07-31T09:24:29;20.90;61.90
1297;DHT22;641;48.492;9.184;2023-07-31T09:26:56;21.10;62.30
1297;DHT22;641;48.492;9.184;2023-07-31T09:29:23;21.20;61.30
1297;DHT22;641;48.492;9.184;2023-07-31T09:31:50;21.60;62.30
1297;DHT22;641;48.492;9.184;2023-07-31T09:34:16;21.90;62.00
1297;DHT22;641;48.492;9.184;2023-07-31T09:36:46;22.00;59.60
1297;DHT22;641;48.492;9.184;2023-07-31T09:39:12;22.00;58.70
1297;DHT22;641;48.492;9.184;2023-07-31T09:41:39;21.90;58.60
1297;DHT22;641;48.492;9.184;2023-07-31T09:44:06;21.70;59.50
1297;DHT22;641;48.492;9.184;2023-07-31T09:46:31;21.70;60.40
1297;DHT22;641;48.492;9.184;2023-07-31T09:49:08;21.50;60.30
1297;DHT22;641;48.492;9.184;2023-07-31T09:51:35;21.60;59.20
1297;DHT22;641;48.492;9.184;2023-07-31T09:54:14;21.50;59.90
1297;DHT22;641;48.492;9.184;2023-07-31T09:56:46;21.80;61.80
1297;DHT22;641;48.492;9.184;2023-07-31T09:59:16;21.80;61.20
1297;DHT22;641;48.492;9.184;2023-07-31T10:01:42;21.80;63.00
1297;DHT22;641;48.492;9.184;2023-07-31T10:04:10;21.90;60.70
1297;DHT22;641;48.492;9.184;2023-07-31T10:06:36;22.00;59.80
1297;DHT22;641;48.492;9.184;2023-07-31T10:09:07;21.90;61.00
1297;DHT22;641;48.492;9.184;2023-07-31T10:11:47;22.30;62.80
1297;DHT22;641;48.492;9.184;2023-07-31T10:14:19;22.20;59.20
1297;DHT22;641;48.492;9.184;2023-07-31T10:16:45;22.20;62.70
1297;DHT22;641;48.492;9.184;2023-07-31T10:19:11;21.90;61.80
1297;DHT22;641;48.492;9.184;2023-07-31T10:21:37;21.90;59.10
1297;DHT22;641;48.492;9.184;2023-07-31T10:24:04;21.60;58.90
1297;DHT22;641;48.492;9.184;2023-07-31T10:26:31;21.60;59.40
1297;DHT22;641;48.492;9.184;2023-07-31T10:28:58;21.70;60.00
1297;DHT22;641;48.492;9.184;2023-07-31T10:31:25;21.60;59.70
1297;DHT22;641;48.492;9.184;2023-07-31T10:33:52;21.40;58.30
1297;DHT22;641;48.492;9.184;2023-07-31T10:36:20;21.20;58.60
1297;DHT22;641;48.492;9.184;2023-07-31T10:38:48;21.10;59.10
1297;DHT22;641;48.492;9.184;2023-07-31T10:41:14;21.40;61.70
1297;DHT22;641;48.492;9.184;2023-07-31T10:43:40;21.70;60.90
1297;DHT22;641;48.492;9.184;2023-07-31T10:46:11;21.80;60.00
1297;DHT22;641;48.492;9.184;2023-07-31T10:48:37;21.80;59.60
1297;DHT22;641;48.492;9.184;2023-07-31T10:51:08;21.90;60.70
1297;DHT22;641;48.492;9.184;2023-07-31T10:53:34;21.80;59.00
1297;DHT22;641;48.492;9.184;2023-07-31T10:56:00;21.60;58.90
1297;DHT22;641;48.492;9.184;2023-07-31T10:58:26;21.40;60.40
1297;DHT22;641;48.492;9.184;2023-07-31T11:00:56;21.40;59.90
1297;DHT22;641;48.492;9.184;2023-07-31T11:03:25;21.40;59.10
1297;DHT22;641;48.492;9.184;2023-07-31T11:05:52;21.40;59.90
1297;DHT22;641;48.492;9.184;2023-07-31T11:08:24;21.40;61.70
1297;DHT22;641;48.492;9.184;2023-07-31T11:11:17;21.40;59.40
1297;DHT22;641;48.492;9.184;2023-07-31T11:13:45;21.50;59.70
1297;DHT22;641;48.492;9.184;2023-07-31T11:16:12;21.80;59.00
1297;DHT22;641;48.492;9.184;2023-07-31T11:18:45;22.20;60.30
1297;DHT22;641;48.492;9.184;2023-07-31T11:21:14;22.60;56.50
1297;DHT22;641;48.492;9.184;2023-07-31T11:23:40;22.90;56.90
1297;DHT22;641;48.492;9.184;2023-07-31T11:26:06;23.20;56.40
1297;DHT22;641;48.492;9.184;2023-07-31T11:28:33;23.10;56.20
1297;DHT22;641;48.492;9.184;2023-07-31T11:31:00;23.20;55.60
1297;DHT22;641;48.492;9.184;2023-07-31T11:33:26;22.70;56.60
1297;DHT22;641;48.492;9.184;2023-07-31T11:35:51;22.70;55.70
1297;DHT22;641;48.492;9.184;2023-07-31T11:38:27;23.10;56.20
1297;DHT22;641;48.492;9.184;2023-07-31T11:40:55;23.20;54.70
1297;DHT22;641;48.492;9.184;2023-07-31T11:43:21;23.20;54.30
1297;DHT22;641;48.492;9.184;2023-07-31T11:45:48;23.50;56.40
1297;DHT22;641;48.492;9.184;2023-07-31T11:48:27;23.50;53.50
1297;DHT22;641;48.492;9.184;2023-07-31T11:51:01;23.40;54.20
1297;DHT22;641;48.492;9.184;2023-07-31T11:53:54;23.30;55.30
1297;DHT22;641;48.492;9.184;2023-07-31T11:56:20;23.30;54.70
1297;DHT22;641;48.492;9.184;2023-07-31T11:58:47;23.40;56.60
1297;DHT22;641;48.492;9.184;2023-07-31T12:01:15;23.50;54.50
1297;DHT22;641;48.492;9.184;2023-07-31T12:03:41;23.80;55.70
1297;DHT22;641;48.492;9.184;2023-07-31T12:06:08;23.70;54.00
1297;DHT22;641;48.492;9.184;2023-07-31T12:08:33;23.50;55.70
1297;DHT22;641;48.492;9.184;2023-07-31T12:11:07;23.00;54.70
1297;DHT22;641;48.492;9.184;2023-07-31T12:13:35;22.70;55.20
1297;DHT22;641;48.492;9.184;2023-07-31T12:16:02;22.60;56.30
1297;DHT22;641;48.492;9.184;2023-07-31T12:18:30;22.40;58.70
1297;DHT22;641;48.492;9.184;2023-07-31T12:21:00;22.40;57.40
1297;DHT22;641;48.492;9.184;2023-07-31T12:23:29;22.10;57.90
1297;DHT22;641;48.492;9.184;2023-07-31T12:26:13;22.10;58.30
1297;DHT22;641;48.492;9.184;2023-07-31T12:28:43;22.10;58.60
1297;DHT22;641;48.492;9.184;2023-07-31T12:31:11;21.90;58.60
1297;DHT22;641;48.492;9.184;2023-07-31T12:33:38;22.00;58.60
1297;DHT22;641;48.492;9.184;2023-07-31T12:36:07;22.00;58.10
1297;DHT22;641;48.492;9.184;2023-07-31T12:38:33;22.10;58.80
1297;DHT22;641;48.492;9.184;2023-07-31T12:40:58;22.40;59.40
1297;DHT22;641;48.492;9.184;2023-07-31T12:43:24;22.90;62.70
1297;DHT22;641;48.492;9.184;2023-07-31T12:45:49;23.10;57.60
1297;DHT22;641;48.492;9.184;2023-07-31T12:48:15;23.00;57.60
1297;DHT22;641;48.492;9.184;2023-07-31T12:50:40;23.00;56.40
1297;DHT22;641;48.492;9.184;2023-07-31T12:53:06;22.90;55.20
1297;DHT22;641;48.492;9.184;2023-07-31T12:55:32;23.00;58.10
1297;DHT22;641;48.492;9.184;2023-07-31T12:58:00;23.20;57.30
1297;DHT22;641;48.492;9.184;2023-07-31T13:00:26;23.50;57.40
1297;DHT22;641;48.492;9.184;2023-07-31T13:02:51;23.40;56.10
1297;DHT22;641;48.492;9.184;2023-07-31T13:05:17;23.40;55.90
1297;DHT22;641;48.492;9.184;2023-07-31T13:07:45;23.60;56.80
1297;DHT22;641;48.492;9.184;2023-07-31T13:10:10;23.70;55.80
1297;DHT22;641;48.492;9.184;2023-07-31T13:12:36;23.90;55.50
1297;DHT22;641;48.492;9.184;2023-07-31T13:15:01;23.80;54.70
1297;DHT22;641;48.492;9.184;2023-07-31T13:17:27;23.50;55.20
1297;DHT22;641;48.492;9.184;2023-07-31T13:19:52;23.70;54.80
1297;DHT22;641;48.492;9.184;2023-07-31T13:22:18;23.80;54.80
1297;DHT22;641;48.492;9.184;2023-07-31T13:24:44;24.10;56.70
1297;DHT22;641;48.492;9.184;2023-07-31T13:27:09;24.60;54.50
1297;DHT22;641;48.492;9.184;2023-07-31T13:29:35;24.30;52.70
1297;DHT22;641;48.492;9.184;2023-07-31T13:32:00;24.50;53.80
1297;DHT22;641;48.492;9.184;2023-07-31T13:34:26;24.50;52.90
1297;DHT22;641;48.492;9.184;2023-07-31T13:36:53;24.80;54.20
1297;DHT22;641;48.492;9.184;2023-07-31T13:39:19;24.70;53.10
1297;DHT22;641;48.492;9.184;2023-07-31T13:41:44;24.70;54.50
1297;DHT22;641;48.492;9.184;2023-07-31T13:44:10;24.40;53.10
1297;DHT22;641;48.492;9.184;2023-07-31T13:46:35;24.00;51.90
1297;DHT22;641;48.492;9.184;2023-07-31T13:49:01;23.60;52.20
1297;DHT22;641;48.492;9.184;2023-07-31T13:51:27;23.20;53.70
1297;DHT22;641;48.492;9.184;2023-07-31T13:53:53;22.80;54.30
1297;DHT22;641;48.492;9.184;2023-07-31T13:56:19;22.60;54.00
1297;DHT22;641;48.492;9.184;2023-07-31T13:58:44;22.50;54.30
1297;DHT22;641;48.492;9.184;2023-07-31T14:01:10;22.40;55.40
1297;DHT22;641;48.492;9.184;2023-07-31T14:03:35;22.30;55.50
1297;DHT22;641;48.492;9.184;2023-07-31T14:06:01;22.30;55.40
1297;DHT22;641;48.492;9.184;2023-07-31T14:08:27;22.40;56.50
1297;DHT22;641;48.492;9.184;2023-07-31T14:10:52;22.40;57.10
1297;DHT22;641;48.492;9.184;2023-07-31T14:13:18;22.40;55.50
1297;DHT22;641;48.492;9.184;2023-07-31T14:15:44;22.30;56.10
1297;DHT22;641;48.492;9.184;2023-07-31T14:18:09;22.30;57.00
1297;DHT22;641;48.492;9.184;2023-07-31T14:20:35;22.30;56.80
1297;DHT22;641;48.492;9.184;2023-07-31T14:23:02;22.30;56.90
1297;DHT22;641;48.492;9.184;2023-07-31T14:25:28;22.20;56.60
1297;DHT22;641;48.492;9.184;2023-07-31T14:27:53;22.20;57.20
1297;DHT22;641;48.492;9.184;2023-07-31T14:30:19;22.10;56.00
1297;DHT22;641;48.492;9.184;2023-07-31T14:32:45;22.00;57.30
1297;DHT22;641;48.492;9.184;2023-07-31T14:35:11;22.00;58.20
1297;DHT22;641;48.492;9.184;2023-07-31T14:37:38;22.00;56.80
1297;DHT22;641;48.492;9.184;2023-07-31T14:40:04;22.00;58.40
1297;DHT22;641;48.492;9.184;2023-07-31T14:42:30;22.00;59.20
1297;DHT22;641;48.492;9.184;2023-07-31T14:44:56;22.10;59.40
1297;DHT22;641;48.492;9.184;2023-07-31T14:47:21;22.00;59.10
1297;DHT22;641;48.492;9.184;2023-07-31T14:49:47;22.00;59.40
1297;DHT22;641;48.492;9.184;2023-07-31T14:52:12;22.00;58.90
1297;DHT22;641;48.492;9.184;2023-07-31T14:54:38;22.00;58.60
1297;DHT22;641;48.492;9.184;2023-07-31T14:57:04;21.90;58.50
1297;DHT22;641;48.492;9.184;2023-07-31T14:59:29;21.80;59.00
1297;DHT22;641;48.492;9.184;2023-07-31T15:01:55;21.80;58.90
1297;DHT22;641;48.492;9.184;2023-07-31T15:04:20;21.70;58.60
1297;DHT22;641;48.492;9.184;2023-07-31T15:06:47;21.70;58.80
1297;DHT22;641;48.492;9.184;2023-07-31T15:09:12;21.70;60.60
1297;DHT22;641;48.492;9.184;2023-07-31T15:11:38;21.60;58.80
1297;DHT22;641;48.492;9.184;2023-07-31T15:14:04;21.60;59.50
1297;DHT22;641;48.492;9.184;2023-07-31T15:16:29;21.60;58.80
1297;DHT22;641;48.492;9.184;2023-07-31T15:18:57;21.60;60.60
1297;DHT22;641;48.492;9.184;2023-07-31T15:21:22;21.60;61.80
1297;DHT22;641;48.492;9.184;2023-07-31T15:23:48;21.70;61.90
1297;DHT22;641;48.492;9.184;2023-07-31T15:26:13;21.70;63.50
1297;DHT22;641;48.492;9.184;2023-07-31T15:28:39;21.80;64.60
1297;DHT22;641;48.492;9.184;2023-07-31T15:31:05;21.90;63.80
1297;DHT22;641;48.492;9.184;2023-07-31T15:33:30;22.00;63.00
1297;DHT22;641;48.492;9.184;2023-07-31T15:35:56;22.10;63.40
1297;DHT22;641;48.492;9.184;2023-07-31T15:38:23;22.20;62.60
1297;DHT22;641;48.492;9.184;2023-07-31T15:40:49;22.30;61.00
1297;DHT22;641;48.492;9.184;2023-07-31T15:43:19;22.40;60.70
1297;DHT22;641;48.492;9.184;2023-07-31T15:45:44;22.50;59.80
1297;DHT22;641;48.492;9.184;2023-07-31T15:48:10;22.50;60.30
1297;DHT22;641;48.492;9.184;2023-07-31T15:50:35;22.40;61.40
1297;DHT22;641;48.492;9.184;2023-07-31T15:53:01;22.50;60.30
1297;DHT22;641;48.492;9.184;2023-07-31T15:55:27;22.50;60.10
1297;DHT22;641;48.492;9.184;2023-07-31T15:57:53;22.60;58.20
1297;DHT22;641;48.492;9.184;2023-07-31T16:00:18;22.70;60.50
1297;DHT22;641;48.492;9.184;2023-07-31T16:02:44;22.70;59.30
1297;DHT22;641;48.492;9.184;2023-07-31T16:05:10;22.70;60.00
1297;DHT22;641;48.492;9.184;2023-07-31T16:07:36;22.70;60.20
1297;DHT22;641;48.492;9.184;2023-07-31T16:10:01;22.70;59.80
1297;DHT22;641;48.492;9.184;2023-07-31T16:12:27;22.70;63.60
1297;DHT22;641;48.492;9.184;2023-07-31T16:14:53;22.70;59.70
1297;DHT22;641;48.492;9.184;2023-07-31T16:17:18;22.90;61.10